CES6924 ZUCK-ZBAA
Flight info
| Callsign | CES6924 |
|---|---|
| Flight time | 1h 57m |
| Altitude | 35100 |
| Route | OVNUL W677 IGIRO W4 VADMO W56 DUGEB |
| Aircraft | A346/H-SDE2E3FGHIJ3J4J5M1RWXY/LB1D1 |
Departure
| Time | 2026-05-07 06:29 |
|---|---|
| Airport | Chongqing Jiangbei International Airport (ZUCK) |
Arrival
| Time | 2026-05-07 08:27 |
|---|---|
| Airport | Beijing Capital International Airport (ZBAA) |
| Time | Latitude | Longitude | Altitude | Speed | Heading |
|---|---|---|---|---|---|
| 2026-05-07 06:17 | 29.71474 | 106.65702 | 1351 ft | 4 kts | 300° |
| 2026-05-07 06:17 | 29.71463 | 106.65724 | 1351 ft | 4 kts | 310° |
| 2026-05-07 06:18 | 29.71452 | 106.65733 | 1352 ft | 4 kts | 354° |
| 2026-05-07 06:18 | 29.71434 | 106.65729 | 1352 ft | 4 kts | 24° |
| 2026-05-07 06:18 | 29.71409 | 106.65715 | 1350 ft | 4 kts | 25° |
| 2026-05-07 06:18 | 29.71403 | 106.65712 | 1349 ft | 0 kts | 24° |
| 2026-05-07 06:22 | 29.71404 | 106.65713 | 1349 ft | 1 kts | 24° |
| 2026-05-07 06:22 | 29.71529 | 106.65817 | 1352 ft | 14 kts | 97° |
| 2026-05-07 06:22 | 29.71515 | 106.65926 | 1346 ft | 8 kts | 63° |
| 2026-05-07 06:23 | 29.71616 | 106.66001 | 1347 ft | 29 kts | 15° |
| 2026-05-07 06:23 | 29.71793 | 106.66060 | 1349 ft | 22 kts | 17° |
| 2026-05-07 06:23 | 29.71948 | 106.66117 | 1346 ft | 24 kts | 17° |
| 2026-05-07 06:23 | 29.72118 | 106.66177 | 1345 ft | 26 kts | 17° |
| 2026-05-07 06:24 | 29.72296 | 106.66240 | 1345 ft | 27 kts | 17° |
| 2026-05-07 06:24 | 29.72483 | 106.66306 | 1342 ft | 28 kts | 17° |
| 2026-05-07 06:24 | 29.72675 | 106.66372 | 1342 ft | 29 kts | 17° |
| 2026-05-07 06:24 | 29.72878 | 106.66442 | 1340 ft | 30 kts | 16° |
| 2026-05-07 06:25 | 29.73081 | 106.66510 | 1335 ft | 31 kts | 16° |
| 2026-05-07 06:25 | 29.73290 | 106.66579 | 1333 ft | 32 kts | 16° |
| 2026-05-07 06:25 | 29.73502 | 106.66653 | 1331 ft | 32 kts | 17° |
| 2026-05-07 06:25 | 29.73718 | 106.66727 | 1329 ft | 32 kts | 17° |
| 2026-05-07 06:26 | 29.73888 | 106.66785 | 1328 ft | 26 kts | 16° |
| 2026-05-07 06:26 | 29.74063 | 106.66845 | 1326 ft | 27 kts | 16° |
| 2026-05-07 06:26 | 29.74249 | 106.66908 | 1326 ft | 28 kts | 17° |
| 2026-05-07 06:26 | 29.74440 | 106.66979 | 1324 ft | 29 kts | 17° |
| 2026-05-07 06:27 | 29.74636 | 106.67047 | 1322 ft | 25 kts | 16° |
| 2026-05-07 06:27 | 29.74712 | 106.67074 | 1321 ft | 5 kts | 25° |
| 2026-05-07 06:27 | 29.74732 | 106.67117 | 1321 ft | 8 kts | 89° |
| 2026-05-07 06:27 | 29.74723 | 106.67194 | 1320 ft | 11 kts | 109° |
| 2026-05-07 06:28 | 29.74662 | 106.67251 | 1320 ft | 13 kts | 175° |
| 2026-05-07 06:28 | 29.74563 | 106.67224 | 1320 ft | 25 kts | 196° |
| 2026-05-07 06:28 | 29.74165 | 106.67087 | 1324 ft | 92 kts | 196° |
| 2026-05-07 06:28 | 29.73354 | 106.66805 | 1331 ft | 149 kts | 197° |
| 2026-05-07 06:29 | 29.72202 | 106.66403 | 1367 ft | 193 kts | 198° |
| 2026-05-07 06:29 | 29.70849 | 106.65953 | 1803 ft | 207 kts | 195° |
| 2026-05-07 06:29 | 29.69420 | 106.65608 | 2530 ft | 209 kts | 182° |
| 2026-05-07 06:29 | 29.67990 | 106.65673 | 3313 ft | 206 kts | 174° |
| 2026-05-07 06:30 | 29.67022 | 106.65725 | 3605 ft | 215 kts | 175° |
| 2026-05-07 06:30 | 29.64945 | 106.65770 | 4081 ft | 237 kts | 177° |
| 2026-05-07 06:30 | 29.63228 | 106.65757 | 4408 ft | 256 kts | 178° |
| 2026-05-07 06:30 | 29.61381 | 106.65715 | 4817 ft | 273 kts | 179° |
| 2026-05-07 06:31 | 29.59448 | 106.65702 | 5439 ft | 282 kts | 172° |
| 2026-05-07 06:31 | 29.57608 | 106.66430 | 6192 ft | 281 kts | 143° |
| 2026-05-07 06:31 | 29.56295 | 106.68043 | 6654 ft | 276 kts | 115° |
| 2026-05-07 06:31 | 29.55707 | 106.70130 | 6889 ft | 276 kts | 99° |
| 2026-05-07 06:32 | 29.55324 | 106.72296 | 6877 ft | 276 kts | 99° |
| 2026-05-07 06:32 | 29.54939 | 106.74461 | 6874 ft | 277 kts | 101° |
| 2026-05-07 06:32 | 29.54675 | 106.75898 | 6870 ft | 277 kts | 101° |
| 2026-05-07 06:32 | 29.54130 | 106.78768 | 6870 ft | 277 kts | 101° |
| 2026-05-07 06:33 | 29.53709 | 106.80931 | 6869 ft | 277 kts | 101° |
| 2026-05-07 06:33 | 29.53289 | 106.83092 | 6887 ft | 278 kts | 101° |
| 2026-05-07 06:33 | 29.53003 | 106.84571 | 7028 ft | 285 kts | 102° |
| 2026-05-07 06:33 | 29.52568 | 106.86791 | 7821 ft | 288 kts | 101° |
| 2026-05-07 06:34 | 29.52210 | 106.89033 | 8910 ft | 284 kts | 90° |
| 2026-05-07 06:34 | 29.52536 | 106.91250 | 9800 ft | 284 kts | 65° |
| 2026-05-07 06:34 | 29.53630 | 106.93147 | 10493 ft | 291 kts | 43° |
| 2026-05-07 06:34 | 29.55368 | 106.94424 | 10933 ft | 307 kts | 19° |
| 2026-05-07 06:35 | 29.58171 | 106.95403 | 11481 ft | 330 kts | 15° |
| 2026-05-07 06:35 | 29.59686 | 106.95906 | 11744 ft | 342 kts | 15° |
| 2026-05-07 06:35 | 29.62824 | 106.96962 | 12226 ft | 367 kts | 15° |
| 2026-05-07 06:35 | 29.64472 | 106.97527 | 12452 ft | 379 kts | 16° |
| 2026-05-07 06:36 | 29.67048 | 106.98420 | 12905 ft | 393 kts | 16° |
| 2026-05-07 06:36 | 29.69688 | 106.99343 | 13605 ft | 399 kts | 16° |
| 2026-05-07 06:36 | 29.72364 | 107.00276 | 14303 ft | 404 kts | 15° |
| 2026-05-07 06:36 | 29.75075 | 107.01221 | 14935 ft | 409 kts | 15° |
| 2026-05-07 06:37 | 29.78708 | 107.02492 | 15793 ft | 415 kts | 15° |
| 2026-05-07 06:37 | 29.80587 | 107.03150 | 16204 ft | 419 kts | 15° |
| 2026-05-07 06:37 | 29.83390 | 107.04127 | 16725 ft | 424 kts | 14° |
| 2026-05-07 06:37 | 29.86238 | 107.04873 | 17301 ft | 427 kts | 7° |
| 2026-05-07 06:38 | 29.89194 | 107.05261 | 17957 ft | 429 kts | 1° |
| 2026-05-07 06:38 | 29.92213 | 107.05296 | 18546 ft | 432 kts | 356° |
| 2026-05-07 06:38 | 29.95228 | 107.05200 | 19074 ft | 435 kts | 355° |
| 2026-05-07 06:38 | 29.98271 | 107.05078 | 19603 ft | 439 kts | 355° |
| 2026-05-07 06:39 | 30.01331 | 107.04957 | 20135 ft | 442 kts | 354° |
| 2026-05-07 06:39 | 30.04417 | 107.04841 | 20649 ft | 446 kts | 354° |
| 2026-05-07 06:39 | 30.07491 | 107.04730 | 21158 ft | 449 kts | 354° |
| 2026-05-07 06:39 | 30.10629 | 107.04618 | 21667 ft | 452 kts | 354° |
| 2026-05-07 06:40 | 30.13787 | 107.04509 | 22183 ft | 455 kts | 354° |
| 2026-05-07 06:40 | 30.16962 | 107.04401 | 22683 ft | 458 kts | 354° |
| 2026-05-07 06:40 | 30.20161 | 107.04292 | 23190 ft | 461 kts | 354° |
| 2026-05-07 06:40 | 30.23374 | 107.04183 | 23652 ft | 464 kts | 353° |
| 2026-05-07 06:41 | 30.26615 | 107.04072 | 24039 ft | 467 kts | 353° |
| 2026-05-07 06:41 | 30.29873 | 107.03961 | 24417 ft | 470 kts | 353° |
| 2026-05-07 06:41 | 30.33148 | 107.03850 | 24806 ft | 473 kts | 353° |
| 2026-05-07 06:41 | 30.36422 | 107.03739 | 25193 ft | 475 kts | 353° |
| 2026-05-07 06:42 | 30.39738 | 107.03626 | 25580 ft | 478 kts | 353° |
| 2026-05-07 06:42 | 30.43079 | 107.03513 | 25952 ft | 481 kts | 353° |
| 2026-05-07 06:42 | 30.46436 | 107.03400 | 26333 ft | 484 kts | 353° |
| 2026-05-07 06:42 | 30.49811 | 107.03286 | 26733 ft | 487 kts | 353° |
| 2026-05-07 06:43 | 30.53223 | 107.03298 | 27111 ft | 495 kts | 0° |
| 2026-05-07 06:43 | 30.56636 | 107.04059 | 27498 ft | 506 kts | 13° |
| 2026-05-07 06:43 | 30.59899 | 107.05662 | 27952 ft | 515 kts | 25° |
| 2026-05-07 06:43 | 30.62876 | 107.07934 | 28395 ft | 522 kts | 32° |
| 2026-05-07 06:44 | 30.65828 | 107.10416 | 28815 ft | 525 kts | 32° |
| 2026-05-07 06:44 | 30.68774 | 107.12929 | 29298 ft | 525 kts | 32° |
| 2026-05-07 06:44 | 30.71722 | 107.15438 | 29845 ft | 524 kts | 32° |
| 2026-05-07 06:44 | 30.74664 | 107.17928 | 30391 ft | 522 kts | 32° |
| 2026-05-07 06:45 | 30.77602 | 107.20404 | 30860 ft | 521 kts | 31° |
| 2026-05-07 06:45 | 30.80541 | 107.22873 | 31317 ft | 521 kts | 31° |
| 2026-05-07 06:45 | 30.83480 | 107.25339 | 31766 ft | 520 kts | 31° |
| 2026-05-07 06:45 | 30.86419 | 107.27803 | 32234 ft | 520 kts | 30° |
| 2026-05-07 06:46 | 30.89309 | 107.30228 | 32725 ft | 519 kts | 30° |
| 2026-05-07 06:46 | 30.92254 | 107.32701 | 33215 ft | 519 kts | 30° |
| 2026-05-07 06:46 | 30.95180 | 107.35159 | 33713 ft | 518 kts | 29° |
| 2026-05-07 06:46 | 30.98110 | 107.37622 | 34137 ft | 519 kts | 29° |
| 2026-05-07 06:47 | 31.01056 | 107.40099 | 34450 ft | 521 kts | 29° |
| 2026-05-07 06:47 | 31.04043 | 107.42501 | 34758 ft | 520 kts | 26° |
| 2026-05-07 06:47 | 31.07120 | 107.44704 | 35059 ft | 518 kts | 22° |
| 2026-05-07 06:47 | 31.10260 | 107.46769 | 35145 ft | 519 kts | 21° |
| 2026-05-07 06:48 | 31.16542 | 107.50795 | 35158 ft | 518 kts | 21° |
| 2026-05-07 06:48 | 31.22855 | 107.54854 | 35144 ft | 518 kts | 21° |
| 2026-05-07 06:49 | 31.29195 | 107.58959 | 35143 ft | 519 kts | 21° |
| 2026-05-07 06:49 | 31.35503 | 107.63055 | 35151 ft | 518 kts | 21° |
| 2026-05-07 06:50 | 31.41766 | 107.67122 | 35152 ft | 517 kts | 22° |
| 2026-05-07 06:50 | 31.48060 | 107.71223 | 35149 ft | 517 kts | 21° |
| 2026-05-07 06:51 | 31.54350 | 107.75325 | 35150 ft | 517 kts | 22° |
| 2026-05-07 06:51 | 31.60603 | 107.79503 | 35152 ft | 519 kts | 25° |
| 2026-05-07 06:52 | 31.66572 | 107.84368 | 35157 ft | 525 kts | 32° |
| 2026-05-07 06:52 | 31.72203 | 107.89776 | 35150 ft | 527 kts | 33° |
| 2026-05-07 06:53 | 31.77848 | 107.95294 | 35170 ft | 527 kts | 33° |
| 2026-05-07 06:53 | 31.83490 | 108.00792 | 35155 ft | 527 kts | 33° |
| 2026-05-07 06:54 | 31.89142 | 108.06294 | 35181 ft | 528 kts | 33° |
| 2026-05-07 06:54 | 31.94763 | 108.11766 | 35182 ft | 527 kts | 33° |
| 2026-05-07 06:55 | 32.00413 | 108.17279 | 35191 ft | 528 kts | 33° |
| 2026-05-07 06:55 | 32.05755 | 108.23296 | 35190 ft | 536 kts | 43° |
| 2026-05-07 06:56 | 32.10156 | 108.30495 | 35205 ft | 546 kts | 56° |
| 2026-05-07 06:56 | 32.13373 | 108.38667 | 35204 ft | 552 kts | 67° |
| 2026-05-07 06:57 | 32.15781 | 108.47229 | 35213 ft | 553 kts | 69° |
| 2026-05-07 06:57 | 32.18186 | 108.55873 | 35210 ft | 553 kts | 69° |
| 2026-05-07 06:58 | 32.21196 | 108.64186 | 35211 ft | 547 kts | 55° |
| 2026-05-07 06:58 | 32.25670 | 108.71258 | 35231 ft | 536 kts | 40° |
| 2026-05-07 06:59 | 32.31332 | 108.76760 | 35241 ft | 519 kts | 25° |
| 2026-05-07 06:59 | 32.37491 | 108.81155 | 35221 ft | 516 kts | 23° |
| 2026-05-07 07:00 | 32.43676 | 108.85492 | 35246 ft | 517 kts | 23° |
| 2026-05-07 07:00 | 32.49841 | 108.89875 | 35211 ft | 516 kts | 24° |
| 2026-05-07 07:01 | 32.55944 | 108.94258 | 35210 ft | 516 kts | 24° |
| 2026-05-07 07:01 | 32.62088 | 108.98685 | 35214 ft | 517 kts | 24° |
| 2026-05-07 07:02 | 32.68230 | 109.03118 | 35211 ft | 517 kts | 24° |
| 2026-05-07 07:02 | 32.74374 | 109.07558 | 35228 ft | 516 kts | 24° |
| 2026-05-07 07:03 | 32.80470 | 109.11969 | 35212 ft | 515 kts | 24° |
| 2026-05-07 07:03 | 32.86586 | 109.16408 | 35210 ft | 516 kts | 24° |
| 2026-05-07 07:04 | 32.92714 | 109.20861 | 35218 ft | 515 kts | 24° |
| 2026-05-07 07:04 | 32.98826 | 109.25303 | 35223 ft | 515 kts | 25° |
| 2026-05-07 07:05 | 33.04939 | 109.29762 | 35220 ft | 515 kts | 25° |
| 2026-05-07 07:05 | 33.11011 | 109.34203 | 35230 ft | 515 kts | 25° |
| 2026-05-07 07:06 | 33.17128 | 109.38680 | 35234 ft | 516 kts | 25° |
| 2026-05-07 07:06 | 33.23269 | 109.43181 | 35249 ft | 521 kts | 25° |
| 2026-05-07 07:07 | 33.29450 | 109.47723 | 35238 ft | 522 kts | 25° |
| 2026-05-07 07:07 | 33.35338 | 109.52761 | 35232 ft | 531 kts | 38° |
| 2026-05-07 07:08 | 33.39952 | 109.59774 | 35241 ft | 544 kts | 57° |
| 2026-05-07 07:08 | 33.42656 | 109.68279 | 35235 ft | 551 kts | 77° |
| 2026-05-07 07:09 | 33.43647 | 109.77418 | 35248 ft | 553 kts | 84° |
| 2026-05-07 07:09 | 33.44416 | 109.86598 | 35234 ft | 554 kts | 83° |
| 2026-05-07 07:10 | 33.45246 | 109.95713 | 35226 ft | 553 kts | 83° |
| 2026-05-07 07:10 | 33.46115 | 110.04871 | 35226 ft | 552 kts | 83° |
| 2026-05-07 07:11 | 33.46983 | 110.14015 | 35224 ft | 552 kts | 83° |
| 2026-05-07 07:11 | 33.47844 | 110.23181 | 35224 ft | 553 kts | 83° |
| 2026-05-07 07:12 | 33.48698 | 110.32350 | 35220 ft | 553 kts | 83° |
| 2026-05-07 07:12 | 33.50074 | 110.41341 | 35213 ft | 551 kts | 68° |
| 2026-05-07 07:13 | 33.51624 | 110.45516 | 35247 ft | 545 kts | 57° |
| 2026-05-07 07:13 | 33.53728 | 110.49240 | 35226 ft | 535 kts | 45° |
| 2026-05-07 07:13 | 33.59194 | 110.54989 | 35222 ft | 515 kts | 25° |
| 2026-05-07 07:14 | 33.65548 | 110.58778 | 35228 ft | 508 kts | 18° |
| 2026-05-07 07:14 | 33.71979 | 110.62331 | 35224 ft | 509 kts | 18° |
| 2026-05-07 07:15 | 33.78354 | 110.65924 | 35235 ft | 510 kts | 19° |
| 2026-05-07 07:15 | 33.84771 | 110.69596 | 35231 ft | 511 kts | 19° |
| 2026-05-07 07:16 | 33.91192 | 110.73290 | 35228 ft | 511 kts | 19° |
| 2026-05-07 07:16 | 33.97610 | 110.76990 | 35246 ft | 512 kts | 19° |
| 2026-05-07 07:17 | 34.04008 | 110.80683 | 35233 ft | 513 kts | 19° |
| 2026-05-07 07:17 | 34.10457 | 110.84412 | 35237 ft | 513 kts | 19° |
| 2026-05-07 07:18 | 34.16895 | 110.88144 | 35234 ft | 513 kts | 19° |
| 2026-05-07 07:18 | 34.23342 | 110.91885 | 35238 ft | 514 kts | 19° |
| 2026-05-07 07:19 | 34.29748 | 110.95606 | 35235 ft | 514 kts | 19° |
| 2026-05-07 07:19 | 34.36138 | 110.99559 | 35238 ft | 520 kts | 25° |
| 2026-05-07 07:20 | 34.42002 | 111.04802 | 35246 ft | 529 kts | 37° |
| 2026-05-07 07:20 | 34.47013 | 111.11418 | 35232 ft | 537 kts | 49° |
| 2026-05-07 07:21 | 34.51086 | 111.19006 | 35221 ft | 542 kts | 55° |
| 2026-05-07 07:21 | 34.54980 | 111.26855 | 35223 ft | 542 kts | 55° |
| 2026-05-07 07:22 | 34.58897 | 111.34693 | 35215 ft | 542 kts | 55° |
| 2026-05-07 07:22 | 34.62870 | 111.42596 | 35204 ft | 542 kts | 55° |
| 2026-05-07 07:23 | 34.66805 | 111.50417 | 35204 ft | 542 kts | 55° |
| 2026-05-07 07:23 | 34.70704 | 111.58186 | 35202 ft | 542 kts | 55° |
| 2026-05-07 07:24 | 34.74630 | 111.66025 | 35200 ft | 542 kts | 55° |
| 2026-05-07 07:24 | 34.78553 | 111.73881 | 35211 ft | 542 kts | 55° |
| 2026-05-07 07:25 | 34.84420 | 111.85659 | 35197 ft | 542 kts | 55° |
| 2026-05-07 07:26 | 34.88305 | 111.93467 | 35189 ft | 542 kts | 54° |
| 2026-05-07 07:26 | 34.92241 | 112.01287 | 35185 ft | 541 kts | 54° |
| 2026-05-07 07:27 | 34.96179 | 112.09125 | 35194 ft | 542 kts | 54° |
| 2026-05-07 07:27 | 35.00120 | 112.16976 | 35184 ft | 542 kts | 54° |
| 2026-05-07 07:28 | 35.04054 | 112.24840 | 35177 ft | 543 kts | 54° |
| 2026-05-07 07:28 | 35.07957 | 112.32667 | 35196 ft | 542 kts | 54° |
| 2026-05-07 07:29 | 35.11879 | 112.40554 | 35200 ft | 544 kts | 54° |
| 2026-05-07 07:29 | 35.15811 | 112.48472 | 35197 ft | 545 kts | 54° |
| 2026-05-07 07:30 | 35.19713 | 112.56348 | 35200 ft | 545 kts | 54° |
| 2026-05-07 07:30 | 35.23666 | 112.64261 | 35201 ft | 544 kts | 53° |
| 2026-05-07 07:31 | 35.27632 | 112.72150 | 35240 ft | 544 kts | 53° |
| 2026-05-07 07:31 | 35.31605 | 112.80075 | 35211 ft | 546 kts | 53° |
| 2026-05-07 07:32 | 35.35581 | 112.88033 | 35210 ft | 547 kts | 53° |
| 2026-05-07 07:32 | 35.39528 | 112.95952 | 35212 ft | 547 kts | 53° |
| 2026-05-07 07:33 | 35.43488 | 113.03919 | 35211 ft | 547 kts | 53° |
| 2026-05-07 07:33 | 35.47459 | 113.11929 | 35220 ft | 550 kts | 53° |
| 2026-05-07 07:34 | 35.51439 | 113.19965 | 35223 ft | 550 kts | 53° |
| 2026-05-07 07:34 | 35.55386 | 113.27961 | 35228 ft | 551 kts | 53° |
| 2026-05-07 07:35 | 35.59351 | 113.36017 | 35231 ft | 550 kts | 53° |
| 2026-05-07 07:35 | 35.63337 | 113.44068 | 35196 ft | 551 kts | 52° |
| 2026-05-07 07:36 | 35.67396 | 113.52037 | 35229 ft | 549 kts | 52° |
| 2026-05-07 07:36 | 35.71441 | 113.60011 | 35237 ft | 548 kts | 52° |
| 2026-05-07 07:37 | 35.75434 | 113.67936 | 35235 ft | 548 kts | 52° |
| 2026-05-07 07:37 | 35.79447 | 113.75934 | 35240 ft | 548 kts | 52° |
| 2026-05-07 07:38 | 35.83475 | 113.83948 | 35244 ft | 549 kts | 52° |
| 2026-05-07 07:38 | 35.87486 | 113.91957 | 35242 ft | 548 kts | 52° |
| 2026-05-07 07:39 | 35.91466 | 113.99926 | 35240 ft | 548 kts | 52° |
| 2026-05-07 07:39 | 35.95460 | 114.07950 | 35296 ft | 549 kts | 52° |
| 2026-05-07 07:40 | 35.99466 | 114.16018 | 35249 ft | 552 kts | 51° |
| 2026-05-07 07:40 | 36.03479 | 114.24107 | 35240 ft | 552 kts | 51° |
| 2026-05-07 07:41 | 36.07464 | 114.32166 | 35234 ft | 553 kts | 52° |
| 2026-05-07 07:41 | 36.11476 | 114.40307 | 35252 ft | 555 kts | 51° |
| 2026-05-07 07:42 | 36.15503 | 114.48487 | 35235 ft | 556 kts | 51° |
| 2026-05-07 07:42 | 36.19527 | 114.56683 | 35226 ft | 556 kts | 51° |
| 2026-05-07 07:43 | 36.23681 | 114.64662 | 35202 ft | 547 kts | 42° |
| 2026-05-07 07:43 | 36.26254 | 114.68056 | 35215 ft | 533 kts | 32° |
| 2026-05-07 07:43 | 36.29148 | 114.70823 | 35219 ft | 518 kts | 22° |
| 2026-05-07 07:43 | 36.32262 | 114.72940 | 35219 ft | 503 kts | 13° |
| 2026-05-07 07:44 | 36.35469 | 114.74623 | 35221 ft | 499 kts | 10° |
| 2026-05-07 07:44 | 36.41934 | 114.77844 | 35221 ft | 500 kts | 11° |
| 2026-05-07 07:45 | 36.48040 | 114.81084 | 35231 ft | 503 kts | 12° |
| 2026-05-07 07:45 | 36.54399 | 114.84752 | 35229 ft | 504 kts | 13° |
| 2026-05-07 07:46 | 36.60741 | 114.88447 | 35229 ft | 504 kts | 13° |
| 2026-05-07 07:46 | 36.67092 | 114.92154 | 35245 ft | 503 kts | 12° |
| 2026-05-07 07:47 | 36.73377 | 114.95820 | 35228 ft | 502 kts | 12° |
| 2026-05-07 07:47 | 36.79708 | 114.99513 | 35230 ft | 502 kts | 12° |
| 2026-05-07 07:48 | 36.86037 | 115.03214 | 35248 ft | 503 kts | 12° |
| 2026-05-07 07:48 | 36.92368 | 115.06926 | 35232 ft | 502 kts | 12° |
| 2026-05-07 07:49 | 36.98657 | 115.10616 | 35228 ft | 502 kts | 12° |
| 2026-05-07 07:49 | 37.04980 | 115.14336 | 35275 ft | 502 kts | 12° |
| 2026-05-07 07:50 | 37.11284 | 115.18055 | 35237 ft | 500 kts | 12° |
| 2026-05-07 07:50 | 37.17588 | 115.21773 | 35233 ft | 500 kts | 12° |
| 2026-05-07 07:51 | 37.23694 | 115.25383 | 35273 ft | 500 kts | 12° |
| 2026-05-07 07:51 | 37.30014 | 115.29130 | 35237 ft | 499 kts | 12° |
| 2026-05-07 07:52 | 37.36296 | 115.32858 | 35229 ft | 499 kts | 12° |
| 2026-05-07 07:52 | 37.42585 | 115.36598 | 35277 ft | 500 kts | 12° |
| 2026-05-07 07:53 | 37.48832 | 115.40322 | 35236 ft | 500 kts | 12° |
| 2026-05-07 07:53 | 37.55121 | 115.44076 | 35229 ft | 500 kts | 12° |
| 2026-05-07 07:54 | 37.61412 | 115.47840 | 35285 ft | 500 kts | 12° |
| 2026-05-07 07:54 | 37.67701 | 115.51609 | 35240 ft | 501 kts | 12° |
| 2026-05-07 07:55 | 37.73974 | 115.55074 | 35220 ft | 489 kts | 6° |
| 2026-05-07 07:55 | 37.77189 | 115.56362 | 34807 ft | 481 kts | 1° |
| 2026-05-07 07:55 | 37.80418 | 115.57302 | 34316 ft | 470 kts | 356° |
| 2026-05-07 07:55 | 37.83613 | 115.57893 | 33702 ft | 459 kts | 352° |
| 2026-05-07 07:56 | 37.86761 | 115.58169 | 33066 ft | 449 kts | 348° |
| 2026-05-07 07:56 | 37.89850 | 115.58153 | 32450 ft | 440 kts | 345° |
| 2026-05-07 07:56 | 37.92891 | 115.57954 | 31844 ft | 436 kts | 344° |
| 2026-05-07 07:56 | 37.95908 | 115.57721 | 31252 ft | 434 kts | 344° |
| 2026-05-07 07:57 | 37.98931 | 115.57481 | 30675 ft | 436 kts | 344° |
| 2026-05-07 07:57 | 38.01920 | 115.57246 | 30116 ft | 438 kts | 345° |
| 2026-05-07 07:57 | 38.04961 | 115.57013 | 29483 ft | 439 kts | 345° |
| 2026-05-07 07:57 | 38.08015 | 115.56780 | 28807 ft | 441 kts | 346° |
| 2026-05-07 07:58 | 38.11097 | 115.56621 | 28187 ft | 444 kts | 348° |
| 2026-05-07 07:58 | 38.14168 | 115.56460 | 27548 ft | 440 kts | 348° |
| 2026-05-07 07:58 | 38.17213 | 115.56260 | 26931 ft | 436 kts | 348° |
| 2026-05-07 07:58 | 38.20167 | 115.56050 | 26334 ft | 433 kts | 348° |
| 2026-05-07 07:59 | 38.23269 | 115.55883 | 25725 ft | 434 kts | 352° |
| 2026-05-07 07:59 | 38.26256 | 115.56247 | 25145 ft | 441 kts | 2° |
| 2026-05-07 07:59 | 38.29241 | 115.57239 | 24573 ft | 448 kts | 11° |
| 2026-05-07 07:59 | 38.32126 | 115.58810 | 24026 ft | 451 kts | 18° |
| 2026-05-07 08:00 | 38.34941 | 115.60563 | 23427 ft | 449 kts | 19° |
| 2026-05-07 08:00 | 38.37725 | 115.62341 | 22758 ft | 446 kts | 20° |
| 2026-05-07 08:00 | 38.40481 | 115.64104 | 22031 ft | 439 kts | 20° |
| 2026-05-07 08:00 | 38.43168 | 115.65820 | 21376 ft | 426 kts | 20° |
| 2026-05-07 08:01 | 38.45810 | 115.67490 | 20826 ft | 421 kts | 20° |
| 2026-05-07 08:01 | 38.48380 | 115.69114 | 20189 ft | 415 kts | 21° |
| 2026-05-07 08:01 | 38.50935 | 115.70731 | 19549 ft | 405 kts | 21° |
| 2026-05-07 08:01 | 38.53445 | 115.72317 | 18962 ft | 400 kts | 21° |
| 2026-05-07 08:02 | 38.55928 | 115.73885 | 18394 ft | 395 kts | 21° |
| 2026-05-07 08:02 | 38.58377 | 115.75435 | 17731 ft | 391 kts | 21° |
| 2026-05-07 08:02 | 38.60799 | 115.76971 | 17104 ft | 386 kts | 21° |
| 2026-05-07 08:02 | 38.63191 | 115.78502 | 16468 ft | 383 kts | 23° |
| 2026-05-07 08:03 | 38.65500 | 115.80209 | 16078 ft | 383 kts | 27° |
| 2026-05-07 08:03 | 38.67738 | 115.82161 | 15886 ft | 386 kts | 31° |
| 2026-05-07 08:03 | 38.69819 | 115.84275 | 15814 ft | 387 kts | 34° |
| 2026-05-07 08:03 | 38.71887 | 115.86485 | 15808 ft | 387 kts | 35° |
| 2026-05-07 08:04 | 38.73952 | 115.88710 | 15806 ft | 387 kts | 35° |
| 2026-05-07 08:04 | 38.76013 | 115.90934 | 15806 ft | 387 kts | 35° |
| 2026-05-07 08:04 | 38.78076 | 115.93160 | 15807 ft | 387 kts | 35° |
| 2026-05-07 08:04 | 38.80137 | 115.95383 | 15813 ft | 387 kts | 35° |
| 2026-05-07 08:05 | 38.82198 | 115.97609 | 15806 ft | 387 kts | 35° |
| 2026-05-07 08:05 | 38.84263 | 115.99838 | 15801 ft | 388 kts | 35° |
| 2026-05-07 08:05 | 38.86324 | 116.02063 | 15796 ft | 388 kts | 35° |
| 2026-05-07 08:05 | 38.88361 | 116.04266 | 15796 ft | 388 kts | 35° |
| 2026-05-07 08:06 | 38.90425 | 116.06499 | 15794 ft | 388 kts | 35° |
| 2026-05-07 08:06 | 38.92488 | 116.08733 | 15795 ft | 388 kts | 35° |
| 2026-05-07 08:06 | 38.94549 | 116.10967 | 15796 ft | 387 kts | 35° |
| 2026-05-07 08:06 | 38.96606 | 116.13197 | 15790 ft | 386 kts | 35° |
| 2026-05-07 08:07 | 38.98660 | 116.15428 | 15786 ft | 386 kts | 35° |
| 2026-05-07 08:07 | 39.00751 | 116.17598 | 15392 ft | 382 kts | 29° |
| 2026-05-07 08:07 | 39.03111 | 116.19014 | 14845 ft | 370 kts | 12° |
| 2026-05-07 08:07 | 39.05582 | 116.19508 | 14331 ft | 361 kts | 358° |
| 2026-05-07 08:08 | 39.08064 | 116.19267 | 13831 ft | 355 kts | 351° |
| 2026-05-07 08:08 | 39.10512 | 116.18896 | 13257 ft | 352 kts | 351° |
| 2026-05-07 08:08 | 39.12927 | 116.18523 | 12909 ft | 349 kts | 351° |
| 2026-05-07 08:08 | 39.15346 | 116.18149 | 12893 ft | 351 kts | 351° |
| 2026-05-07 08:09 | 39.17774 | 116.17778 | 12882 ft | 352 kts | 351° |
| 2026-05-07 08:09 | 39.20210 | 116.17408 | 12887 ft | 353 kts | 351° |
| 2026-05-07 08:09 | 39.22648 | 116.17039 | 12885 ft | 352 kts | 352° |
| 2026-05-07 08:09 | 39.25080 | 116.16671 | 12885 ft | 352 kts | 352° |
| 2026-05-07 08:10 | 39.27515 | 116.16302 | 12884 ft | 352 kts | 352° |
| 2026-05-07 08:10 | 39.29915 | 116.15939 | 12883 ft | 352 kts | 351° |
| 2026-05-07 08:10 | 39.32350 | 116.15571 | 12879 ft | 352 kts | 351° |
| 2026-05-07 08:10 | 39.34779 | 116.15202 | 12882 ft | 352 kts | 351° |
| 2026-05-07 08:11 | 39.37215 | 116.14830 | 12481 ft | 353 kts | 352° |
| 2026-05-07 08:11 | 39.39666 | 116.14751 | 11704 ft | 352 kts | 7° |
| 2026-05-07 08:11 | 39.41951 | 116.15734 | 11044 ft | 342 kts | 26° |
| 2026-05-07 08:11 | 39.43818 | 116.17576 | 10448 ft | 334 kts | 43° |
| 2026-05-07 08:12 | 39.45104 | 116.19977 | 9856 ft | 328 kts | 61° |
| 2026-05-07 08:12 | 39.45768 | 116.22777 | 9209 ft | 324 kts | 77° |
| 2026-05-07 08:12 | 39.46064 | 116.25636 | 8576 ft | 316 kts | 80° |
| 2026-05-07 08:12 | 39.46306 | 116.28422 | 8058 ft | 306 kts | 79° |
| 2026-05-07 08:13 | 39.46540 | 116.31073 | 7876 ft | 284 kts | 79° |
| 2026-05-07 08:13 | 39.46759 | 116.33503 | 7862 ft | 260 kts | 79° |
| 2026-05-07 08:13 | 39.46976 | 116.35825 | 7909 ft | 253 kts | 78° |
| 2026-05-07 08:13 | 39.47188 | 116.38056 | 7852 ft | 246 kts | 78° |
| 2026-05-07 08:14 | 39.47401 | 116.40273 | 7538 ft | 245 kts | 78° |
| 2026-05-07 08:14 | 39.47615 | 116.42470 | 7221 ft | 246 kts | 79° |
| 2026-05-07 08:14 | 39.48004 | 116.44603 | 6908 ft | 241 kts | 62° |
| 2026-05-07 08:14 | 39.48862 | 116.46390 | 6622 ft | 234 kts | 44° |
| 2026-05-07 08:15 | 39.50027 | 116.47827 | 6327 ft | 231 kts | 38° |
| 2026-05-07 08:15 | 39.51245 | 116.49192 | 6019 ft | 231 kts | 37° |
| 2026-05-07 08:15 | 39.52455 | 116.50538 | 5897 ft | 229 kts | 37° |
| 2026-05-07 08:15 | 39.53668 | 116.51898 | 5897 ft | 231 kts | 38° |
| 2026-05-07 08:16 | 39.54890 | 116.53278 | 5877 ft | 231 kts | 38° |
| 2026-05-07 08:16 | 39.56101 | 116.54655 | 5879 ft | 232 kts | 38° |
| 2026-05-07 08:16 | 39.57294 | 116.56014 | 5892 ft | 231 kts | 38° |
| 2026-05-07 08:16 | 39.58504 | 116.57392 | 5884 ft | 232 kts | 38° |
| 2026-05-07 08:17 | 39.59722 | 116.58780 | 5886 ft | 233 kts | 38° |
| 2026-05-07 08:17 | 39.60943 | 116.60172 | 5883 ft | 233 kts | 38° |
| 2026-05-07 08:17 | 39.62161 | 116.61564 | 5884 ft | 233 kts | 38° |
| 2026-05-07 08:17 | 39.63376 | 116.62956 | 5884 ft | 233 kts | 38° |
| 2026-05-07 08:18 | 39.64603 | 116.64360 | 5890 ft | 232 kts | 38° |
| 2026-05-07 08:18 | 39.65789 | 116.65720 | 5877 ft | 224 kts | 38° |
| 2026-05-07 08:18 | 39.67057 | 116.66826 | 5869 ft | 218 kts | 17° |
| 2026-05-07 08:18 | 39.68496 | 116.67313 | 5888 ft | 216 kts | 4° |
| 2026-05-07 08:19 | 39.69985 | 116.67368 | 5905 ft | 214 kts | 354° |
| 2026-05-07 08:19 | 39.71468 | 116.67203 | 5888 ft | 214 kts | 352° |
| 2026-05-07 08:19 | 39.72942 | 116.66980 | 5907 ft | 213 kts | 351° |
| 2026-05-07 08:19 | 39.74415 | 116.66746 | 5885 ft | 213 kts | 351° |
| 2026-05-07 08:20 | 39.75899 | 116.66508 | 5872 ft | 214 kts | 351° |
| 2026-05-07 08:20 | 39.77379 | 116.66272 | 5642 ft | 214 kts | 351° |
| 2026-05-07 08:20 | 39.78858 | 116.66037 | 5346 ft | 213 kts | 351° |
| 2026-05-07 08:20 | 39.80322 | 116.65805 | 5069 ft | 212 kts | 351° |
| 2026-05-07 08:21 | 39.81760 | 116.65577 | 4834 ft | 209 kts | 351° |
| 2026-05-07 08:21 | 39.83179 | 116.65354 | 4600 ft | 200 kts | 351° |
| 2026-05-07 08:21 | 39.84519 | 116.65144 | 4287 ft | 189 kts | 351° |
| 2026-05-07 08:21 | 39.85779 | 116.64946 | 4006 ft | 176 kts | 351° |
| 2026-05-07 08:22 | 39.86944 | 116.64762 | 3763 ft | 162 kts | 351° |
| 2026-05-07 08:22 | 39.88021 | 116.64592 | 3550 ft | 151 kts | 351° |
| 2026-05-07 08:22 | 39.89064 | 116.64425 | 3373 ft | 150 kts | 351° |
| 2026-05-07 08:22 | 39.90096 | 116.64261 | 3177 ft | 150 kts | 351° |
| 2026-05-07 08:23 | 39.91115 | 116.64100 | 2997 ft | 150 kts | 351° |
| 2026-05-07 08:23 | 39.92160 | 116.63934 | 2805 ft | 150 kts | 352° |
| 2026-05-07 08:23 | 39.93195 | 116.63771 | 2607 ft | 150 kts | 351° |
| 2026-05-07 08:23 | 39.94230 | 116.63608 | 2420 ft | 147 kts | 351° |
| 2026-05-07 08:24 | 39.95257 | 116.63446 | 2210 ft | 150 kts | 351° |
| 2026-05-07 08:24 | 39.96296 | 116.63282 | 2017 ft | 151 kts | 351° |
| 2026-05-07 08:24 | 39.97343 | 116.63116 | 1817 ft | 151 kts | 351° |
| 2026-05-07 08:24 | 39.98387 | 116.62952 | 1605 ft | 151 kts | 352° |
| 2026-05-07 08:25 | 39.99416 | 116.62790 | 1399 ft | 150 kts | 351° |
| 2026-05-07 08:25 | 40.00442 | 116.62627 | 1223 ft | 145 kts | 351° |
| 2026-05-07 08:25 | 40.01461 | 116.62457 | 1053 ft | 145 kts | 352° |
| 2026-05-07 08:25 | 40.02496 | 116.62298 | 845 ft | 145 kts | 353° |
| 2026-05-07 08:26 | 40.04515 | 116.62003 | 420 ft | 146 kts | 350° |
| 2026-05-07 08:26 | 40.05521 | 116.61831 | 267 ft | 143 kts | 350° |
| 2026-05-07 08:26 | 40.06493 | 116.61669 | 129 ft | 135 kts | 352° |
| 2026-05-07 08:27 | 40.07214 | 116.61552 | 127 ft | 69 kts | 354° |
| 2026-05-07 08:27 | 40.07531 | 116.61507 | 126 ft | 44 kts | 353° |
| 2026-05-07 08:27 | 40.07757 | 116.61460 | 127 ft | 26 kts | 343° |
| 2026-05-07 08:27 | 40.07893 | 116.61370 | 132 ft | 15 kts | 324° |
| 2026-05-07 08:28 | 40.07959 | 116.61302 | 125 ft | 8 kts | 309° |
| 2026-05-07 08:28 | 40.07960 | 116.61231 | 126 ft | 10 kts | 226° |
| 2026-05-07 08:28 | 40.07881 | 116.61221 | 130 ft | 13 kts | 172° |
| 2026-05-07 08:28 | 40.07776 | 116.61236 | 132 ft | 17 kts | 173° |
| 2026-05-07 08:29 | 40.07646 | 116.61255 | 130 ft | 20 kts | 173° |
| 2026-05-07 08:29 | 40.07497 | 116.61277 | 130 ft | 23 kts | 173° |
| 2026-05-07 08:29 | 40.07325 | 116.61305 | 129 ft | 26 kts | 171° |
| 2026-05-07 08:29 | 40.07143 | 116.61338 | 125 ft | 28 kts | 174° |
| 2026-05-07 08:30 | 40.07000 | 116.61354 | 125 ft | 2 kts | 206° |
| 2026-05-07 08:30 | 40.06977 | 116.61326 | 128 ft | 6 kts | 235° |
| 2026-05-07 08:30 | 40.06964 | 116.61259 | 129 ft | 9 kts | 261° |
| 2026-05-07 08:30 | 40.06954 | 116.61158 | 130 ft | 13 kts | 263° |
| 2026-05-07 08:31 | 40.06947 | 116.61078 | 133 ft | 3 kts | 263° |
| 2026-05-07 08:31 | 40.06943 | 116.61038 | 131 ft | 6 kts | 262° |
| 2026-05-07 08:31 | 40.06914 | 116.60990 | 131 ft | 9 kts | 199° |
| 2026-05-07 08:31 | 40.06842 | 116.60992 | 126 ft | 12 kts | 173° |
| 2026-05-07 08:32 | 40.06745 | 116.61007 | 124 ft | 16 kts | 173° |
| 2026-05-07 08:32 | 40.06715 | 116.61012 | 124 ft | 1 kts | 174° |
| 2026-05-07 08:32 | 40.06684 | 116.61000 | 126 ft | 6 kts | 218° |
| 2026-05-07 08:32 | 40.06674 | 116.60967 | 129 ft | 0 kts | 266° |
| 2026-05-07 08:33 | 40.06673 | 116.60949 | 130 ft | 4 kts | 264° |
| 2026-05-07 08:33 | 40.06669 | 116.60904 | 130 ft | 0 kts | 263° |
| 2026-05-07 08:33 | 40.06669 | 116.60898 | 131 ft | 0 kts | 263° |